»·PEaware :: RA34691 VVNB-VHHH

RA34691 :: VVNB-VHHH

FLIGHT INFORMATION

Flight Status: Arrived
Operator: Privately registered:
Russian Federation
More flights under this callsign
Pilot: Sergei F. (8485)
Aircraft: Unknown
(E50P)
More flights by this aircraft type
Origin: VVNB Noi Bai Intl
Vietnam
Destination: VHHH Hong Kong Chek Lap Kok
Hong Kong
More flights between these airports :: More routes between these airports
Route: VVNB VHHH
File this flight plan on PilotEdge
Remarks:
Altitude:
(Current/Filed)
10,000ft
Speed:
(Current/Filed)
300kts
Departed: 20-Mar-16 12:34 AM
Arrived: 20-Mar-16 02:11 AM
Distance/Time
Traveled:
458nm/1:37
Distance/Time
To Go:
Arrived

Flight Plot

Page will automatically refresh every two minutes.


Map Options




Map Legend


Flown Route
Filed Route
Departure Airport
Arrival Airport
Navaid (VOR, NDB)
Fix

Horizontal Profiles

Position Reports

Time Latitude Longitude Heading Altitude Ground
Speed
20-Mar-16 00:22 21.223977 105.786226 18 45ft 0kts
20-Mar-16 00:23 21.223977 105.786226 18 45ft 0kts
20-Mar-16 00:24 21.223977 105.786226 18 45ft 0kts
20-Mar-16 00:25 21.224518 105.786672 74 45ft 9kts
20-Mar-16 00:26 21.222652 105.793499 108 45ft 89kts
20-Mar-16 00:27 21.216174 105.815168 105 568ft 142kts
20-Mar-16 00:28 21.200732 105.883404 104 2379ft 233kts
20-Mar-16 00:29 21.187891 105.943426 104 3007ft 262kts
20-Mar-16 00:30 21.165910 106.048555 104 4310ft 268kts
20-Mar-16 00:31 21.154054 106.106779 104 5037ft 276kts
20-Mar-16 00:32 21.135329 106.200321 104 6114ft 274kts
20-Mar-16 00:34 21.102811 106.365152 104 8025ft 272kts
20-Mar-16 00:35 21.089878 106.431632 104 8547ft 280kts
20-Mar-16 00:36 21.074566 106.510421 104 9159ft 293kts
20-Mar-16 00:37 21.056644 106.603149 104 9820ft 294kts
20-Mar-16 00:38 21.039806 106.691371 104 10003ft 308kts
20-Mar-16 00:39 21.024528 106.770890 104 10006ft 326kts
20-Mar-16 00:40 21.001920 106.887843 104 10341ft 327kts
20-Mar-16 00:41 20.986739 106.966704 104 10499ft 326kts
20-Mar-16 00:42 20.978996 107.079084 85 10500ft 335kts
20-Mar-16 00:43 20.988365 107.155278 79 10498ft 336kts
20-Mar-16 00:44 21.017697 107.254065 65 10500ft 337kts
20-Mar-16 00:45 21.051134 107.331669 64 10503ft 342kts
20-Mar-16 00:46 21.105732 107.445009 59 11013ft 337kts
20-Mar-16 00:47 21.144943 107.516733 58 11589ft 336kts
20-Mar-16 00:48 21.191271 107.601187 58 12230ft 335kts
20-Mar-16 00:49 21.231882 107.683218 62 12891ft 333kts
20-Mar-16 00:50 21.286561 107.802571 60 12924ft 353kts
20-Mar-16 00:51 21.331726 107.884788 57 13270ft 349kts
20-Mar-16 00:53 21.401631 108.040245 69 14714ft 331kts
20-Mar-16 00:54 21.442896 108.159031 69 14825ft 350kts
20-Mar-16 00:55 21.484301 108.284736 73 14824ft 362kts
20-Mar-16 00:56 21.508048 108.372320 74 14824ft 366kts
20-Mar-16 00:57 21.532817 108.469907 77 14824ft 368kts
20-Mar-16 00:58 21.546660 108.581134 85 15297ft 354kts
20-Mar-16 00:59 21.545964 108.665283 99 16244ft 328kts
20-Mar-16 01:00 21.536242 108.760159 100 16822ft 328kts
20-Mar-16 01:01 21.525787 108.857650 100 16826ft 344kts
20-Mar-16 01:02 21.514087 108.966832 98 16826ft 355kts
20-Mar-16 01:03 21.503361 109.119805 97 16825ft 363kts
20-Mar-16 01:04 21.497154 109.213362 97 16825ft 365kts
20-Mar-16 01:05 21.489638 109.327903 97 16825ft 367kts
20-Mar-16 01:06 21.483031 109.428639 97 16814ft 369kts
20-Mar-16 01:07 21.476561 109.527362 97 16824ft 369kts
20-Mar-16 01:08 21.469471 109.635705 97 16825ft 369kts
20-Mar-16 01:09 21.455411 109.724040 106 16826ft 366kts
20-Mar-16 01:10 21.427586 109.855980 106 16836ft 366kts
20-Mar-16 01:12 21.381997 110.071904 106 16839ft 367kts
20-Mar-16 01:13 21.365765 110.183776 94 16840ft 371kts
20-Mar-16 01:14 21.364413 110.276862 93 16841ft 372kts
20-Mar-16 01:15 21.363624 110.396965 93 16842ft 372kts
20-Mar-16 01:16 21.368058 110.508722 88 16838ft 373kts
20-Mar-16 01:17 21.374643 110.610549 87 16838ft 373kts
20-Mar-16 01:18 21.382705 110.717861 85 16841ft 374kts
20-Mar-16 01:19 21.395735 110.825575 84 16843ft 374kts
20-Mar-16 01:20 21.406635 110.928279 85 16846ft 374kts
20-Mar-16 01:21 21.415878 111.045306 86 16850ft 374kts
20-Mar-16 01:22 21.425755 111.154899 85 16854ft 374kts
20-Mar-16 01:23 21.437543 111.282294 83 16859ft 375kts
20-Mar-16 01:24 21.453165 111.386095 81 16864ft 375kts
20-Mar-16 01:25 21.468693 111.482798 81 16869ft 375kts
20-Mar-16 01:26 21.492343 111.589278 71 16873ft 376kts
20-Mar-16 01:27 21.531121 111.707790 69 16882ft 376kts
20-Mar-16 01:28 21.571614 111.826214 67 16890ft 376kts
20-Mar-16 01:29 21.600429 111.909937 69 16896ft 377kts
20-Mar-16 01:30 21.635762 112.015085 72 16903ft 377kts
20-Mar-16 01:31 21.661556 112.121276 76 16911ft 378kts
20-Mar-16 01:32 21.690520 112.252943 78 16920ft 377kts
20-Mar-16 01:33 21.711095 112.360340 78 16930ft 377kts
20-Mar-16 01:34 21.731257 112.465533 78 16939ft 377kts
20-Mar-16 01:35 21.749850 112.562950 78 16943ft 377kts
20-Mar-16 01:36 21.773980 112.688183 79 16949ft 376kts
20-Mar-16 01:37 21.791918 112.781491 78 16952ft 376kts
20-Mar-16 01:38 21.817186 112.896443 76 16956ft 376kts
20-Mar-16 01:40 21.888853 113.105116 65 16962ft 376kts
20-Mar-16 01:41 21.943686 113.217837 60 16965ft 375kts
20-Mar-16 01:42 21.989831 113.310928 60 16966ft 375kts
20-Mar-16 01:43 22.044643 113.420971 58 16641ft 368kts
20-Mar-16 01:44 22.095157 113.516316 60 15344ft 331kts
20-Mar-16 01:46 22.186858 113.681409 54 12800ft 282kts
20-Mar-16 01:48 22.276083 113.684758 328 10559ft 219kts
20-Mar-16 01:50 22.250344 113.653104 114 7272ft 215kts
20-Mar-16 01:51 22.267445 113.732440 59 5599ft 216kts
20-Mar-16 01:53 22.317181 113.658379 239 4255ft 200kts
20-Mar-16 01:54 22.284009 113.654887 123 3444ft 187kts
20-Mar-16 01:55 22.290451 113.715460 80 2522ft 162kts
20-Mar-16 01:56 22.298773 113.751691 83 1873ft 130kts
20-Mar-16 01:57 22.302301 113.776435 81 1562ft 105kts
20-Mar-16 01:58 22.307539 113.817721 113 1063ft 92kts
20-Mar-16 02:00 22.303522 113.873986 79 451ft 91kts
20-Mar-16 02:02 22.313333 113.905637 73 33ft 57kts
20-Mar-16 02:03 22.315313 113.911569 72 33ft 25kts
20-Mar-16 02:04 22.316230 113.918756 100 33ft 8kts
20-Mar-16 02:05 22.315618 113.921153 70 33ft 9kts
20-Mar-16 02:06 22.316395 113.924438 114 33ft 10kts
20-Mar-16 02:07 22.314925 113.927839 90 33ft 11kts
20-Mar-16 02:08 22.315958 113.931188 69 33ft 0kts
20-Mar-16 02:09 22.316058 113.931992 61 33ft 7kts
20-Mar-16 02:11 22.317028 113.932338 343 33ft 0kts
20-Mar-16 02:12 22.317028 113.932338 343 33ft 0kts

Navigation Log

Ident Type
Flight plan parsing failed, navigation log unavailable